sensor_id;sensor_type;location;lat;lon;timestamp;P1;durP1;ratioP1;P2;durP2;ratioP2
23498;SDS011;11926;48.120;11.562;2023-04-08T00:01:20;15.70;;;10.15;;
23498;SDS011;11926;48.120;11.562;2023-04-08T00:04:09;16.63;;;10.45;;
23498;SDS011;11926;48.120;11.562;2023-04-08T00:06:59;14.60;;;9.70;;
23498;SDS011;11926;48.120;11.562;2023-04-08T00:09:47;16.55;;;9.98;;
23498;SDS011;11926;48.120;11.562;2023-04-08T00:12:38;17.05;;;10.02;;
23498;SDS011;11926;48.120;11.562;2023-04-08T00:15:29;14.95;;;9.88;;
23498;SDS011;11926;48.120;11.562;2023-04-08T00:18:16;16.55;;;10.52;;
23498;SDS011;11926;48.120;11.562;2023-04-08T00:21:05;15.85;;;10.13;;
23498;SDS011;11926;48.120;11.562;2023-04-08T00:23:53;18.73;;;11.65;;
23498;SDS011;11926;48.120;11.562;2023-04-08T00:26:41;22.38;;;10.57;;
23498;SDS011;11926;48.120;11.562;2023-04-08T00:29:29;16.45;;;10.07;;
23498;SDS011;11926;48.120;11.562;2023-04-08T00:32:16;15.38;;;9.52;;
23498;SDS011;11926;48.120;11.562;2023-04-08T00:35:04;12.27;;;8.63;;
23498;SDS011;11926;48.120;11.562;2023-04-08T00:37:53;17.55;;;9.30;;
23498;SDS011;11926;48.120;11.562;2023-04-08T00:40:41;17.15;;;10.13;;
23498;SDS011;11926;48.120;11.562;2023-04-08T00:43:28;15.43;;;9.60;;
23498;SDS011;11926;48.120;11.562;2023-04-08T00:46:15;16.73;;;9.95;;
23498;SDS011;11926;48.120;11.562;2023-04-08T00:49:03;17.10;;;10.48;;
23498;SDS011;11926;48.120;11.562;2023-04-08T00:51:53;17.23;;;10.57;;
23498;SDS011;11926;48.120;11.562;2023-04-08T00:54:42;15.40;;;9.52;;
23498;SDS011;11926;48.120;11.562;2023-04-08T00:57:30;18.48;;;9.95;;
23498;SDS011;11926;48.120;11.562;2023-04-08T01:00:17;17.90;;;9.65;;
23498;SDS011;11926;48.120;11.562;2023-04-08T01:03:06;16.77;;;9.65;;
23498;SDS011;11926;48.120;11.562;2023-04-08T01:06:03;16.40;;;9.52;;
23498;SDS011;11926;48.120;11.562;2023-04-08T01:08:57;18.23;;;10.13;;
23498;SDS011;11926;48.120;11.562;2023-04-08T01:11:48;19.98;;;9.80;;
23498;SDS011;11926;48.120;11.562;2023-04-08T01:14:38;18.48;;;10.90;;
23498;SDS011;11926;48.120;11.562;2023-04-08T01:17:30;15.88;;;10.00;;
23498;SDS011;11926;48.120;11.562;2023-04-08T01:20:19;17.83;;;10.38;;
23498;SDS011;11926;48.120;11.562;2023-04-08T01:23:09;15.30;;;9.60;;
23498;SDS011;11926;48.120;11.562;2023-04-08T01:26:08;13.85;;;8.40;;
23498;SDS011;11926;48.120;11.562;2023-04-08T01:28:58;15.68;;;9.43;;
23498;SDS011;11926;48.120;11.562;2023-04-08T01:31:47;17.38;;;9.85;;
23498;SDS011;11926;48.120;11.562;2023-04-08T01:34:36;16.45;;;9.60;;
23498;SDS011;11926;48.120;11.562;2023-04-08T01:37:25;15.63;;;10.05;;
23498;SDS011;11926;48.120;11.562;2023-04-08T01:40:15;17.73;;;11.25;;
23498;SDS011;11926;48.120;11.562;2023-04-08T01:43:06;19.25;;;11.10;;
23498;SDS011;11926;48.120;11.562;2023-04-08T01:45:55;18.75;;;10.88;;
23498;SDS011;11926;48.120;11.562;2023-04-08T01:48:44;18.90;;;10.90;;
23498;SDS011;11926;48.120;11.562;2023-04-08T01:51:33;20.45;;;12.10;;
23498;SDS011;11926;48.120;11.562;2023-04-08T01:54:23;19.83;;;10.57;;
23498;SDS011;11926;48.120;11.562;2023-04-08T01:57:11;18.65;;;11.70;;
23498;SDS011;11926;48.120;11.562;2023-04-08T02:00:05;18.67;;;11.55;;
23498;SDS011;11926;48.120;11.562;2023-04-08T02:03:12;17.25;;;10.82;;
23498;SDS011;11926;48.120;11.562;2023-04-08T02:06:04;16.73;;;10.65;;
23498;SDS011;11926;48.120;11.562;2023-04-08T02:08:52;17.00;;;10.23;;
23498;SDS011;11926;48.120;11.562;2023-04-08T02:11:40;18.30;;;10.48;;
23498;SDS011;11926;48.120;11.562;2023-04-08T02:14:30;19.85;;;11.00;;
23498;SDS011;11926;48.120;11.562;2023-04-08T02:17:20;20.63;;;11.52;;
23498;SDS011;11926;48.120;11.562;2023-04-08T02:20:15;19.38;;;11.43;;
23498;SDS011;11926;48.120;11.562;2023-04-08T02:23:06;18.15;;;11.32;;
23498;SDS011;11926;48.120;11.562;2023-04-08T02:25:58;17.98;;;11.48;;
23498;SDS011;11926;48.120;11.562;2023-04-08T02:28:48;22.73;;;12.13;;
23498;SDS011;11926;48.120;11.562;2023-04-08T02:31:40;21.17;;;11.80;;
23498;SDS011;11926;48.120;11.562;2023-04-08T02:34:33;20.35;;;11.90;;
23498;SDS011;11926;48.120;11.562;2023-04-08T02:37:21;21.50;;;11.30;;
23498;SDS011;11926;48.120;11.562;2023-04-08T02:46:01;19.70;;;11.20;;
23498;SDS011;11926;48.120;11.562;2023-04-08T02:48:49;20.25;;;12.15;;
23498;SDS011;11926;48.120;11.562;2023-04-08T02:51:39;22.58;;;12.55;;
23498;SDS011;11926;48.120;11.562;2023-04-08T02:54:27;25.60;;;14.63;;
23498;SDS011;11926;48.120;11.562;2023-04-08T02:57:14;24.08;;;14.02;;
23498;SDS011;11926;48.120;11.562;2023-04-08T03:00:02;28.88;;;15.20;;
23498;SDS011;11926;48.120;11.562;2023-04-08T03:02:51;21.88;;;13.25;;
23498;SDS011;11926;48.120;11.562;2023-04-08T03:05:39;27.08;;;14.73;;
23498;SDS011;11926;48.120;11.562;2023-04-08T03:08:28;22.58;;;13.98;;
23498;SDS011;11926;48.120;11.562;2023-04-08T03:11:15;22.40;;;14.13;;
23498;SDS011;11926;48.120;11.562;2023-04-08T03:14:03;21.48;;;12.93;;
23498;SDS011;11926;48.120;11.562;2023-04-08T03:16:51;23.13;;;12.77;;
23498;SDS011;11926;48.120;11.562;2023-04-08T03:19:38;25.10;;;14.95;;
23498;SDS011;11926;48.120;11.562;2023-04-08T03:22:26;21.02;;;13.40;;
23498;SDS011;11926;48.120;11.562;2023-04-08T03:25:15;24.20;;;13.75;;
23498;SDS011;11926;48.120;11.562;2023-04-08T03:28:02;26.08;;;15.15;;
23498;SDS011;11926;48.120;11.562;2023-04-08T03:30:50;23.90;;;13.98;;
23498;SDS011;11926;48.120;11.562;2023-04-08T03:33:38;26.10;;;16.10;;
23498;SDS011;11926;48.120;11.562;2023-04-08T03:36:26;25.15;;;14.73;;
23498;SDS011;11926;48.120;11.562;2023-04-08T03:39:13;25.95;;;15.90;;
23498;SDS011;11926;48.120;11.562;2023-04-08T03:42:02;23.10;;;14.43;;
23498;SDS011;11926;48.120;11.562;2023-04-08T03:44:49;24.25;;;14.98;;
23498;SDS011;11926;48.120;11.562;2023-04-08T03:47:36;25.10;;;15.73;;
23498;SDS011;11926;48.120;11.562;2023-04-08T03:50:24;24.77;;;15.35;;
23498;SDS011;11926;48.120;11.562;2023-04-08T03:53:12;27.90;;;16.35;;
23498;SDS011;11926;48.120;11.562;2023-04-08T03:55:59;25.42;;;15.90;;
23498;SDS011;11926;48.120;11.562;2023-04-08T03:58:52;22.38;;;14.55;;
23498;SDS011;11926;48.120;11.562;2023-04-08T04:01:40;23.92;;;15.32;;
23498;SDS011;11926;48.120;11.562;2023-04-08T04:04:28;24.98;;;16.00;;
23498;SDS011;11926;48.120;11.562;2023-04-08T04:07:16;24.27;;;16.38;;
23498;SDS011;11926;48.120;11.562;2023-04-08T04:10:03;26.02;;;15.02;;
23498;SDS011;11926;48.120;11.562;2023-04-08T04:12:51;22.83;;;15.23;;
23498;SDS011;11926;48.120;11.562;2023-04-08T04:15:41;25.42;;;16.08;;
23498;SDS011;11926;48.120;11.562;2023-04-08T04:18:28;25.45;;;15.75;;
23498;SDS011;11926;48.120;11.562;2023-04-08T04:21:16;23.08;;;15.43;;
23498;SDS011;11926;48.120;11.562;2023-04-08T04:24:04;23.90;;;15.70;;
23498;SDS011;11926;48.120;11.562;2023-04-08T04:26:53;28.60;;;17.15;;
23498;SDS011;11926;48.120;11.562;2023-04-08T04:29:41;25.75;;;16.85;;
23498;SDS011;11926;48.120;11.562;2023-04-08T04:32:30;26.42;;;16.50;;
23498;SDS011;11926;48.120;11.562;2023-04-08T04:35:17;27.65;;;15.75;;
23498;SDS011;11926;48.120;11.562;2023-04-08T04:38:04;27.00;;;16.73;;
23498;SDS011;11926;48.120;11.562;2023-04-08T04:40:56;26.40;;;16.60;;
23498;SDS011;11926;48.120;11.562;2023-04-08T04:43:44;24.30;;;16.30;;
23498;SDS011;11926;48.120;11.562;2023-04-08T04:46:31;26.45;;;17.63;;
23498;SDS011;11926;48.120;11.562;2023-04-08T04:49:20;27.58;;;17.05;;
23498;SDS011;11926;48.120;11.562;2023-04-08T04:52:08;31.40;;;17.70;;
23498;SDS011;11926;48.120;11.562;2023-04-08T04:54:56;27.02;;;17.48;;
23498;SDS011;11926;48.120;11.562;2023-04-08T04:57:44;28.45;;;18.83;;
23498;SDS011;11926;48.120;11.562;2023-04-08T05:00:31;29.92;;;18.30;;
23498;SDS011;11926;48.120;11.562;2023-04-08T05:03:19;30.90;;;18.58;;
23498;SDS011;11926;48.120;11.562;2023-04-08T05:06:08;29.67;;;18.15;;
23498;SDS011;11926;48.120;11.562;2023-04-08T05:08:56;26.38;;;17.45;;
23498;SDS011;11926;48.120;11.562;2023-04-08T05:11:46;27.50;;;16.98;;
23498;SDS011;11926;48.120;11.562;2023-04-08T05:14:36;29.58;;;18.40;;
23498;SDS011;11926;48.120;11.562;2023-04-08T05:17:24;27.67;;;17.73;;
23498;SDS011;11926;48.120;11.562;2023-04-08T05:20:11;28.45;;;16.23;;
23498;SDS011;11926;48.120;11.562;2023-04-08T05:23:03;29.35;;;18.27;;
23498;SDS011;11926;48.120;11.562;2023-04-08T05:25:51;28.00;;;18.30;;
23498;SDS011;11926;48.120;11.562;2023-04-08T05:28:39;28.00;;;17.73;;
23498;SDS011;11926;48.120;11.562;2023-04-08T05:31:26;27.17;;;16.75;;
23498;SDS011;11926;48.120;11.562;2023-04-08T05:34:14;27.33;;;18.02;;
23498;SDS011;11926;48.120;11.562;2023-04-08T05:37:10;27.85;;;18.33;;
23498;SDS011;11926;48.120;11.562;2023-04-08T05:39:59;31.48;;;18.73;;
23498;SDS011;11926;48.120;11.562;2023-04-08T05:42:46;26.45;;;18.13;;
23498;SDS011;11926;48.120;11.562;2023-04-08T05:45:34;29.27;;;18.38;;
23498;SDS011;11926;48.120;11.562;2023-04-08T05:48:21;29.35;;;18.58;;
23498;SDS011;11926;48.120;11.562;2023-04-08T05:51:12;31.40;;;18.20;;
23498;SDS011;11926;48.120;11.562;2023-04-08T05:54:02;25.25;;;17.25;;
23498;SDS011;11926;48.120;11.562;2023-04-08T05:56:51;24.35;;;16.80;;
23498;SDS011;11926;48.120;11.562;2023-04-08T05:59:39;27.73;;;17.70;;
23498;SDS011;11926;48.120;11.562;2023-04-08T06:02:26;32.92;;;17.27;;
23498;SDS011;11926;48.120;11.562;2023-04-08T06:05:14;28.70;;;17.77;;
23498;SDS011;11926;48.120;11.562;2023-04-08T06:08:03;26.73;;;17.55;;
23498;SDS011;11926;48.120;11.562;2023-04-08T06:10:51;28.17;;;17.05;;
23498;SDS011;11926;48.120;11.562;2023-04-08T06:13:42;24.98;;;16.33;;
23498;SDS011;11926;48.120;11.562;2023-04-08T06:16:30;25.00;;;16.58;;
23498;SDS011;11926;48.120;11.562;2023-04-08T06:19:18;24.08;;;16.80;;
23498;SDS011;11926;48.120;11.562;2023-04-08T06:22:05;24.27;;;15.45;;
23498;SDS011;11926;48.120;11.562;2023-04-08T06:24:53;24.35;;;16.38;;
23498;SDS011;11926;48.120;11.562;2023-04-08T06:27:40;24.95;;;16.02;;
23498;SDS011;11926;48.120;11.562;2023-04-08T06:30:29;25.52;;;14.10;;
23498;SDS011;11926;48.120;11.562;2023-04-08T06:33:17;23.25;;;15.57;;
23498;SDS011;11926;48.120;11.562;2023-04-08T06:36:05;22.58;;;15.77;;
23498;SDS011;11926;48.120;11.562;2023-04-08T06:38:54;25.13;;;15.50;;
23498;SDS011;11926;48.120;11.562;2023-04-08T06:41:41;25.98;;;16.02;;
23498;SDS011;11926;48.120;11.562;2023-04-08T06:44:44;26.33;;;16.88;;
23498;SDS011;11926;48.120;11.562;2023-04-08T06:47:34;23.98;;;16.33;;
23498;SDS011;11926;48.120;11.562;2023-04-08T06:50:24;24.77;;;16.45;;
23498;SDS011;11926;48.120;11.562;2023-04-08T06:53:12;26.15;;;16.17;;
23498;SDS011;11926;48.120;11.562;2023-04-08T06:56:00;23.63;;;16.08;;
23498;SDS011;11926;48.120;11.562;2023-04-08T06:58:47;24.02;;;16.73;;
23498;SDS011;11926;48.120;11.562;2023-04-08T07:01:35;24.88;;;16.88;;
23498;SDS011;11926;48.120;11.562;2023-04-08T07:04:24;27.90;;;17.33;;
23498;SDS011;11926;48.120;11.562;2023-04-08T07:07:12;26.35;;;17.05;;
23498;SDS011;11926;48.120;11.562;2023-04-08T07:10:00;24.80;;;16.92;;
23498;SDS011;11926;48.120;11.562;2023-04-08T07:12:47;23.77;;;16.25;;
23498;SDS011;11926;48.120;11.562;2023-04-08T07:15:35;23.65;;;15.98;;
23498;SDS011;11926;48.120;11.562;2023-04-08T07:18:22;24.10;;;16.30;;
23498;SDS011;11926;48.120;11.562;2023-04-08T07:21:14;24.73;;;16.33;;
23498;SDS011;11926;48.120;11.562;2023-04-08T07:24:02;24.52;;;16.45;;
23498;SDS011;11926;48.120;11.562;2023-04-08T07:26:50;23.45;;;16.65;;
23498;SDS011;11926;48.120;11.562;2023-04-08T07:29:40;20.92;;;15.68;;
23498;SDS011;11926;48.120;11.562;2023-04-08T07:32:27;23.60;;;16.63;;
23498;SDS011;11926;48.120;11.562;2023-04-08T07:35:15;25.67;;;17.95;;
23498;SDS011;11926;48.120;11.562;2023-04-08T07:38:10;25.08;;;17.50;;
23498;SDS011;11926;48.120;11.562;2023-04-08T07:40:58;23.38;;;15.98;;
23498;SDS011;11926;48.120;11.562;2023-04-08T07:43:45;27.05;;;16.65;;
23498;SDS011;11926;48.120;11.562;2023-04-08T07:46:35;22.70;;;15.65;;
23498;SDS011;11926;48.120;11.562;2023-04-08T07:49:23;20.13;;;14.95;;
23498;SDS011;11926;48.120;11.562;2023-04-08T07:52:11;21.52;;;15.35;;
23498;SDS011;11926;48.120;11.562;2023-04-08T07:55:00;19.45;;;13.63;;
23498;SDS011;11926;48.120;11.562;2023-04-08T07:57:48;17.70;;;12.15;;
23498;SDS011;11926;48.120;11.562;2023-04-08T08:00:36;16.05;;;11.73;;
23498;SDS011;11926;48.120;11.562;2023-04-08T08:03:25;18.60;;;12.07;;
23498;SDS011;11926;48.120;11.562;2023-04-08T08:06:14;19.10;;;13.20;;
23498;SDS011;11926;48.120;11.562;2023-04-08T08:09:02;15.32;;;11.40;;
23498;SDS011;11926;48.120;11.562;2023-04-08T08:11:51;15.98;;;10.77;;
23498;SDS011;11926;48.120;11.562;2023-04-08T08:14:39;17.00;;;11.10;;
23498;SDS011;11926;48.120;11.562;2023-04-08T08:17:26;16.75;;;11.77;;
23498;SDS011;11926;48.120;11.562;2023-04-08T08:20:15;15.25;;;11.35;;
23498;SDS011;11926;48.120;11.562;2023-04-08T08:23:03;18.52;;;11.45;;
23498;SDS011;11926;48.120;11.562;2023-04-08T08:25:58;17.38;;;12.18;;
23498;SDS011;11926;48.120;11.562;2023-04-08T08:28:47;18.88;;;12.45;;
23498;SDS011;11926;48.120;11.562;2023-04-08T08:31:35;19.67;;;13.32;;
23498;SDS011;11926;48.120;11.562;2023-04-08T08:34:22;18.33;;;13.25;;
23498;SDS011;11926;48.120;11.562;2023-04-08T08:37:10;21.92;;;12.80;;
23498;SDS011;11926;48.120;11.562;2023-04-08T08:39:58;17.13;;;12.40;;
23498;SDS011;11926;48.120;11.562;2023-04-08T08:42:48;20.27;;;12.95;;
23498;SDS011;11926;48.120;11.562;2023-04-08T08:45:39;19.45;;;13.13;;
23498;SDS011;11926;48.120;11.562;2023-04-08T08:48:30;21.13;;;13.77;;
23498;SDS011;11926;48.120;11.562;2023-04-08T08:51:18;20.67;;;13.60;;
23498;SDS011;11926;48.120;11.562;2023-04-08T08:54:07;19.33;;;12.15;;
23498;SDS011;11926;48.120;11.562;2023-04-08T08:56:54;17.55;;;12.10;;
23498;SDS011;11926;48.120;11.562;2023-04-08T08:59:42;18.30;;;12.75;;
23498;SDS011;11926;48.120;11.562;2023-04-08T09:02:33;19.50;;;14.30;;
23498;SDS011;11926;48.120;11.562;2023-04-08T09:05:21;22.48;;;14.70;;
23498;SDS011;11926;48.120;11.562;2023-04-08T09:08:16;20.63;;;13.57;;
23498;SDS011;11926;48.120;11.562;2023-04-08T09:11:11;20.80;;;13.68;;
23498;SDS011;11926;48.120;11.562;2023-04-08T09:14:00;22.48;;;13.57;;
23498;SDS011;11926;48.120;11.562;2023-04-08T09:16:47;21.05;;;14.25;;
23498;SDS011;11926;48.120;11.562;2023-04-08T09:19:37;19.95;;;13.35;;
23498;SDS011;11926;48.120;11.562;2023-04-08T09:22:25;17.42;;;11.95;;
23498;SDS011;11926;48.120;11.562;2023-04-08T09:25:21;17.75;;;12.88;;
23498;SDS011;11926;48.120;11.562;2023-04-08T09:28:18;19.02;;;12.88;;
23498;SDS011;11926;48.120;11.562;2023-04-08T09:34:09;19.17;;;11.88;;
23498;SDS011;11926;48.120;11.562;2023-04-08T09:37:00;19.85;;;13.05;;
23498;SDS011;11926;48.120;11.562;2023-04-08T09:39:47;19.63;;;12.82;;
23498;SDS011;11926;48.120;11.562;2023-04-08T09:42:35;16.80;;;12.50;;
23498;SDS011;11926;48.120;11.562;2023-04-08T09:45:27;18.70;;;12.52;;
23498;SDS011;11926;48.120;11.562;2023-04-08T09:48:16;19.17;;;12.57;;
23498;SDS011;11926;48.120;11.562;2023-04-08T09:51:11;18.40;;;13.52;;
23498;SDS011;11926;48.120;11.562;2023-04-08T09:56:59;19.52;;;12.57;;
23498;SDS011;11926;48.120;11.562;2023-04-08T09:59:51;25.27;;;13.43;;
23498;SDS011;11926;48.120;11.562;2023-04-08T10:03:00;18.50;;;13.00;;
23498;SDS011;11926;48.120;11.562;2023-04-08T10:05:54;20.17;;;13.63;;
23498;SDS011;11926;48.120;11.562;2023-04-08T10:08:42;17.40;;;12.63;;
23498;SDS011;11926;48.120;11.562;2023-04-08T10:11:32;21.42;;;13.65;;
23498;SDS011;11926;48.120;11.562;2023-04-08T10:14:20;19.67;;;14.25;;
23498;SDS011;11926;48.120;11.562;2023-04-08T10:29:34;18.88;;;13.65;;
23498;SDS011;11926;48.120;11.562;2023-04-08T10:32:28;18.95;;;13.13;;
23498;SDS011;11926;48.120;11.562;2023-04-08T10:35:15;20.38;;;14.98;;
23498;SDS011;11926;48.120;11.562;2023-04-08T10:38:02;20.95;;;14.18;;
23498;SDS011;11926;48.120;11.562;2023-04-08T10:40:49;20.40;;;14.10;;
23498;SDS011;11926;48.120;11.562;2023-04-08T10:43:39;22.10;;;14.90;;
23498;SDS011;11926;48.120;11.562;2023-04-08T10:46:26;20.30;;;15.60;;
23498;SDS011;11926;48.120;11.562;2023-04-08T10:49:14;19.90;;;14.32;;
23498;SDS011;11926;48.120;11.562;2023-04-08T10:52:05;18.33;;;14.57;;
23498;SDS011;11926;48.120;11.562;2023-04-08T10:54:54;20.15;;;13.75;;
23498;SDS011;11926;48.120;11.562;2023-04-08T10:57:41;19.85;;;13.90;;
23498;SDS011;11926;48.120;11.562;2023-04-08T11:00:33;20.55;;;14.65;;
23498;SDS011;11926;48.120;11.562;2023-04-08T11:03:21;21.03;;;14.73;;
23498;SDS011;11926;48.120;11.562;2023-04-08T11:06:09;20.67;;;15.15;;
23498;SDS011;11926;48.120;11.562;2023-04-08T11:09:01;19.98;;;14.73;;
23498;SDS011;11926;48.120;11.562;2023-04-08T11:11:50;21.13;;;15.25;;
23498;SDS011;11926;48.120;11.562;2023-04-08T11:14:39;23.27;;;15.32;;
23498;SDS011;11926;48.120;11.562;2023-04-08T11:17:29;20.60;;;15.68;;
23498;SDS011;11926;48.120;11.562;2023-04-08T11:20:16;23.27;;;14.77;;
23498;SDS011;11926;48.120;11.562;2023-04-08T11:23:10;22.33;;;15.57;;
23498;SDS011;11926;48.120;11.562;2023-04-08T11:25:59;20.25;;;15.25;;
23498;SDS011;11926;48.120;11.562;2023-04-08T11:28:50;25.42;;;16.83;;
23498;SDS011;11926;48.120;11.562;2023-04-08T11:31:39;22.48;;;16.58;;
23498;SDS011;11926;48.120;11.562;2023-04-08T11:34:29;23.35;;;15.93;;
23498;SDS011;11926;48.120;11.562;2023-04-08T11:37:17;24.75;;;17.02;;
23498;SDS011;11926;48.120;11.562;2023-04-08T11:40:06;21.20;;;15.18;;
23498;SDS011;11926;48.120;11.562;2023-04-08T11:42:54;20.75;;;14.45;;
23498;SDS011;11926;48.120;11.562;2023-04-08T11:45:42;20.30;;;15.30;;
23498;SDS011;11926;48.120;11.562;2023-04-08T11:48:30;21.40;;;15.00;;
23498;SDS011;11926;48.120;11.562;2023-04-08T11:51:19;18.90;;;14.00;;
23498;SDS011;11926;48.120;11.562;2023-04-08T11:54:08;21.80;;;15.45;;
23498;SDS011;11926;48.120;11.562;2023-04-08T11:57:13;22.27;;;14.77;;
23498;SDS011;11926;48.120;11.562;2023-04-08T12:00:02;21.38;;;15.65;;
23498;SDS011;11926;48.120;11.562;2023-04-08T12:02:54;22.58;;;15.52;;
23498;SDS011;11926;48.120;11.562;2023-04-08T12:05:42;22.58;;;15.45;;
23498;SDS011;11926;48.120;11.562;2023-04-08T12:08:32;24.10;;;16.77;;
23498;SDS011;11926;48.120;11.562;2023-04-08T12:11:19;22.58;;;16.17;;
23498;SDS011;11926;48.120;11.562;2023-04-08T12:14:08;21.23;;;15.27;;
23498;SDS011;11926;48.120;11.562;2023-04-08T12:16:56;21.85;;;14.95;;
23498;SDS011;11926;48.120;11.562;2023-04-08T12:19:44;22.83;;;16.23;;
23498;SDS011;11926;48.120;11.562;2023-04-08T12:22:31;21.75;;;15.45;;
23498;SDS011;11926;48.120;11.562;2023-04-08T12:25:21;23.02;;;15.20;;
23498;SDS011;11926;48.120;11.562;2023-04-08T12:28:09;21.92;;;14.45;;
23498;SDS011;11926;48.120;11.562;2023-04-08T12:31:06;20.40;;;15.48;;
23498;SDS011;11926;48.120;11.562;2023-04-08T12:33:54;20.35;;;13.75;;
23498;SDS011;11926;48.120;11.562;2023-04-08T12:36:41;17.30;;;13.75;;
23498;SDS011;11926;48.120;11.562;2023-04-08T12:39:29;19.92;;;13.40;;
23498;SDS011;11926;48.120;11.562;2023-04-08T12:42:18;17.85;;;13.23;;
23498;SDS011;11926;48.120;11.562;2023-04-08T12:45:05;18.92;;;14.38;;
23498;SDS011;11926;48.120;11.562;2023-04-08T12:47:54;20.67;;;13.30;;
23498;SDS011;11926;48.120;11.562;2023-04-08T12:50:41;16.58;;;11.98;;
23498;SDS011;11926;48.120;11.562;2023-04-08T12:53:29;17.60;;;12.18;;
23498;SDS011;11926;48.120;11.562;2023-04-08T12:56:17;15.90;;;11.77;;
23498;SDS011;11926;48.120;11.562;2023-04-08T12:59:06;18.83;;;13.80;;
23498;SDS011;11926;48.120;11.562;2023-04-08T13:01:55;15.38;;;11.52;;
23498;SDS011;11926;48.120;11.562;2023-04-08T13:04:42;15.35;;;11.18;;
23498;SDS011;11926;48.120;11.562;2023-04-08T13:07:30;17.23;;;12.02;;
23498;SDS011;11926;48.120;11.562;2023-04-08T13:10:17;16.67;;;11.32;;
23498;SDS011;11926;48.120;11.562;2023-04-08T13:13:05;15.77;;;11.43;;
23498;SDS011;11926;48.120;11.562;2023-04-08T13:15:54;17.70;;;12.07;;
23498;SDS011;11926;48.120;11.562;2023-04-08T13:18:42;17.80;;;12.00;;
23498;SDS011;11926;48.120;11.562;2023-04-08T13:21:30;18.27;;;12.10;;
23498;SDS011;11926;48.120;11.562;2023-04-08T13:24:17;16.73;;;11.30;;
23498;SDS011;11926;48.120;11.562;2023-04-08T13:27:05;17.33;;;12.35;;
23498;SDS011;11926;48.120;11.562;2023-04-08T13:29:52;20.60;;;12.77;;
23498;SDS011;11926;48.120;11.562;2023-04-08T13:32:41;19.67;;;11.45;;
23498;SDS011;11926;48.120;11.562;2023-04-08T13:35:41;15.25;;;11.13;;
23498;SDS011;11926;48.120;11.562;2023-04-08T13:38:29;16.40;;;11.02;;
23498;SDS011;11926;48.120;11.562;2023-04-08T13:41:16;16.33;;;11.73;;
23498;SDS011;11926;48.120;11.562;2023-04-08T13:44:05;15.13;;;10.60;;
23498;SDS011;11926;48.120;11.562;2023-04-08T13:46:53;16.70;;;11.38;;
23498;SDS011;11926;48.120;11.562;2023-04-08T13:49:42;17.88;;;11.02;;
23498;SDS011;11926;48.120;11.562;2023-04-08T13:52:30;17.88;;;12.38;;
23498;SDS011;11926;48.120;11.562;2023-04-08T13:55:18;15.07;;;10.88;;
23498;SDS011;11926;48.120;11.562;2023-04-08T13:58:05;16.65;;;11.45;;
23498;SDS011;11926;48.120;11.562;2023-04-08T14:01:07;17.13;;;12.40;;
23498;SDS011;11926;48.120;11.562;2023-04-08T14:03:57;14.15;;;10.70;;
23498;SDS011;11926;48.120;11.562;2023-04-08T14:06:46;14.82;;;11.13;;
23498;SDS011;11926;48.120;11.562;2023-04-08T14:09:37;14.48;;;11.63;;
23498;SDS011;11926;48.120;11.562;2023-04-08T14:12:24;17.50;;;12.15;;
23498;SDS011;11926;48.120;11.562;2023-04-08T14:15:12;15.25;;;10.93;;
23498;SDS011;11926;48.120;11.562;2023-04-08T14:18:00;15.13;;;11.48;;
23498;SDS011;11926;48.120;11.562;2023-04-08T14:20:47;14.32;;;10.45;;
23498;SDS011;11926;48.120;11.562;2023-04-08T14:23:36;14.57;;;10.63;;
23498;SDS011;11926;48.120;11.562;2023-04-08T14:26:24;14.77;;;11.05;;
23498;SDS011;11926;48.120;11.562;2023-04-08T14:29:12;16.52;;;11.20;;
23498;SDS011;11926;48.120;11.562;2023-04-08T14:32:00;14.07;;;10.15;;
23498;SDS011;11926;48.120;11.562;2023-04-08T14:34:47;16.55;;;11.15;;
23498;SDS011;11926;48.120;11.562;2023-04-08T14:37:35;16.63;;;11.77;;
23498;SDS011;11926;48.120;11.562;2023-04-08T14:40:25;15.57;;;11.48;;
23498;SDS011;11926;48.120;11.562;2023-04-08T14:43:12;15.38;;;11.88;;
23498;SDS011;11926;48.120;11.562;2023-04-08T14:46:00;15.70;;;11.45;;
23498;SDS011;11926;48.120;11.562;2023-04-08T14:48:48;15.93;;;11.43;;
23498;SDS011;11926;48.120;11.562;2023-04-08T14:51:36;17.92;;;12.63;;
23498;SDS011;11926;48.120;11.562;2023-04-08T14:54:23;15.43;;;11.10;;
23498;SDS011;11926;48.120;11.562;2023-04-08T14:57:12;15.48;;;11.30;;
23498;SDS011;11926;48.120;11.562;2023-04-08T15:00:01;14.98;;;10.75;;
23498;SDS011;11926;48.120;11.562;2023-04-08T15:02:49;15.63;;;12.02;;
23498;SDS011;11926;48.120;11.562;2023-04-08T15:05:36;16.85;;;12.45;;
23498;SDS011;11926;48.120;11.562;2023-04-08T15:08:24;15.18;;;11.27;;
23498;SDS011;11926;48.120;11.562;2023-04-08T15:11:11;17.45;;;12.10;;
23498;SDS011;11926;48.120;11.562;2023-04-08T15:14:00;50.33;;;31.25;;
23498;SDS011;11926;48.120;11.562;2023-04-08T15:16:48;15.85;;;12.15;;
23498;SDS011;11926;48.120;11.562;2023-04-08T15:19:36;15.15;;;11.38;;
23498;SDS011;11926;48.120;11.562;2023-04-08T15:22:23;18.10;;;10.93;;
23498;SDS011;11926;48.120;11.562;2023-04-08T15:25:11;16.52;;;12.18;;
23498;SDS011;11926;48.120;11.562;2023-04-08T15:27:59;14.18;;;10.80;;
23498;SDS011;11926;48.120;11.562;2023-04-08T15:30:49;16.05;;;11.65;;
23498;SDS011;11926;48.120;11.562;2023-04-08T15:33:37;18.73;;;12.02;;
23498;SDS011;11926;48.120;11.562;2023-04-08T15:36:26;15.15;;;11.52;;
23498;SDS011;11926;48.120;11.562;2023-04-08T15:39:15;16.42;;;12.40;;
23498;SDS011;11926;48.120;11.562;2023-04-08T15:42:02;19.13;;;13.10;;
23498;SDS011;11926;48.120;11.562;2023-04-08T15:44:50;17.45;;;12.15;;
23498;SDS011;11926;48.120;11.562;2023-04-08T15:47:39;18.88;;;13.10;;
23498;SDS011;11926;48.120;11.562;2023-04-08T15:50:28;22.65;;;15.45;;
23498;SDS011;11926;48.120;11.562;2023-04-08T15:53:15;20.92;;;14.40;;
23498;SDS011;11926;48.120;11.562;2023-04-08T15:56:03;21.77;;;14.77;;
23498;SDS011;11926;48.120;11.562;2023-04-08T15:58:50;23.25;;;15.73;;
23498;SDS011;11926;48.120;11.562;2023-04-08T16:01:39;21.35;;;15.18;;
23498;SDS011;11926;48.120;11.562;2023-04-08T16:04:28;20.60;;;14.30;;
23498;SDS011;11926;48.120;11.562;2023-04-08T16:07:15;22.38;;;14.73;;
23498;SDS011;11926;48.120;11.562;2023-04-08T16:10:03;24.55;;;16.05;;
23498;SDS011;11926;48.120;11.562;2023-04-08T16:12:52;23.33;;;15.10;;
23498;SDS011;11926;48.120;11.562;2023-04-08T16:15:39;23.60;;;15.80;;
23498;SDS011;11926;48.120;11.562;2023-04-08T16:18:27;21.65;;;15.13;;
23498;SDS011;11926;48.120;11.562;2023-04-08T16:21:16;22.52;;;15.18;;
23498;SDS011;11926;48.120;11.562;2023-04-08T16:24:04;25.77;;;16.52;;
23498;SDS011;11926;48.120;11.562;2023-04-08T16:26:52;23.08;;;15.73;;
23498;SDS011;11926;48.120;11.562;2023-04-08T16:29:39;24.25;;;16.38;;
23498;SDS011;11926;48.120;11.562;2023-04-08T16:32:28;29.70;;;16.58;;
23498;SDS011;11926;48.120;11.562;2023-04-08T16:35:16;26.90;;;16.67;;
23498;SDS011;11926;48.120;11.562;2023-04-08T16:38:06;24.23;;;15.95;;